Baker City Municipal Airport
KBKE : now visible

Airfield :











YOU CAN JOIN US ON...

 
LOGIN :

Register | Disclaimer

   EN    FR    IT 

 









Legend :    VFR   Marginal VFR   IFR   Intensive IFR   Very Intensive IFR
Visi :
Ceiling :
>= 8 km
>= 3000ft
5 to 8 km
1000 to 3000 ft
1500m to 5 km
500 to 1000 ft
800 to 1500m
200 to 500 ft
< 800m
< 200 ft
Symbols :   Thunderstorms  Fog  Heavy snow  Heavy precipitations  Wind > 20 kt






- Airport Elevation : 3373 ft


KBKE - Baker City Municipal

CURRENT METAR :
  • 040853Z AUTO 00000KT 10SM CLR M07/M11 A3011 RMK AO2 SLP229 T10671111 58024

EXPIRED METARs :
  • 040753Z AUTO 00000KT 10SM CLR M10/M13 A3015 RMK AO2 SLP249 T11001128 410171133
  • 040653Z AUTO 00000KT 10SM CLR M11/M13 A3016 RMK AO2 SLP255 T11061128

TAF KBKE
Valid from the 04 at 06:00 until the 05 at 06:00 UTC


040520Z 0406/0506 VRB03KT P6SM OVC150
FM041200 10008KT 4SM -SN BR OVC025
FM041800 12008KT 1SM -SN BR OVC008
FM050000 13006KT P6SM VCSH OVC015
KZLC FIR / North America



MET'MAP, your aeronautical weather chart ! - Copyright ORBIFLY December 2007 - Disclaimer

ORBIFLY MET'MAP TEAM :

Programming & Development : Alexandra Zaïnal
Original concept : Baudouin d'Aumeries
Technical & hardware support : Manuel Goepfert
Assistance : Marc-Olivier Méhu




SOURCES & CREDITS :

   NOAA       Earth
Advisory